Turriff, United Kingdom
Current Conditions -  °F | °C
As of 9:20 PM on Thursday 18 Dec 2014 (Local Time) from EGPD Reporting Station
Clear Clear  
Wind Chill: 34°   Ceiling: Unl
Heat Index: 41°   Visibility: 6mi
Dew Point: 32°   Wind: 12mph
Humidity: 70%   Direction: 260°W
Pressure: 29.32"   Gusts: NA
Location:  57.54°N, 2.46°W
Report Text: EGPD 182120Z 26010KT CAVOK 05/M00 Q0993 NOSIG
Loading
Personal Weather Stations






























Interactive Weather Map New forecast layout! Learn more

10-Day Weather Forecast

Advertisements
Track Severe Weather on mobile